Time;durP1;ratioP1;P1;durP2;ratioP2;P2;SDS_P1;SDS_P2;PMS_P1;PMS_P2;Temp;Humidity;BMP_temperature;BMP_pressure;BME280_temperature;BME280_humidity;BME280_pressure;Samples;Min_cycle;Max_cycle;Signal;HPM_P1;HPM_P2
2022/08/08 00:00:18;;;;;;;8.00;7.40;;;17.80;99.90;;;;;;5094484;28;20242;-53
2022/08/08 00:02:55;;;;;;;8.03;7.53;;;17.80;99.90;;;;;;5094322;28;20232;-52
2022/08/08 00:05:30;;;;;;;7.40;6.93;;;17.80;99.90;;;;;;5093494;28;20204;-53
2022/08/08 00:08:07;;;;;;;7.13;6.73;;;17.70;99.90;;;;;;5094678;28;20196;-52
2022/08/08 00:10:43;;;;;;;7.00;6.40;;;17.70;99.90;;;;;;5090248;28;20219;-53
2022/08/08 00:13:17;;;;;;;7.20;6.90;;;17.60;99.90;;;;;;5097704;28;20220;-52
2022/08/08 00:15:54;;;;;;;8.03;7.63;;;17.60;99.90;;;;;;5086461;28;20729;-53
2022/08/08 00:18:28;;;;;;;6.43;5.93;;;17.50;99.90;;;;;;5085483;28;20241;-53
2022/08/08 00:20:58;;;;;;;7.30;6.77;;;17.50;99.90;;;;;;5093934;28;20196;-53
2022/08/08 00:23:34;;;;;;;7.50;7.20;;;17.50;99.90;;;;;;5080796;28;20235;-53
2022/08/08 00:26:03;;;;;;;6.97;6.67;;;17.50;99.90;;;;;;5085432;28;20224;-53
2022/08/08 00:28:35;;;;;;;8.17;7.67;;;17.50;99.90;;;;;;5093831;28;20777;-52
2022/08/08 00:31:06;;;;;;;7.43;7.03;;;17.50;99.90;;;;;;5093055;28;20217;-53
2022/08/08 00:33:40;;;;;;;8.40;7.90;;;17.40;99.90;;;;;;5081144;28;20220;-53
2022/08/08 00:36:20;;;;;;;7.77;7.37;;;17.30;99.90;;;;;;5081786;28;20228;-53
2022/08/08 00:38:58;;;;;;;8.40;7.80;;;17.30;99.90;;;;;;5073557;28;20345;-53
2022/08/08 00:42:06;;;;;;;8.07;7.47;;;17.30;99.90;;;;;;5088508;28;20200;-53
2022/08/08 00:45:02;;;;;;;7.60;7.20;;;17.30;99.90;;;;;;5084974;28;20632;-53
2022/08/08 00:48:05;;;;;;;7.47;7.13;;;17.30;99.90;;;;;;5093314;28;20249;-52
2022/08/08 00:51:17;;;;;;;6.93;6.37;;;17.30;99.90;;;;;;5100230;28;20280;-52
2022/08/08 00:54:13;;;;;;;8.47;7.87;;;17.40;99.90;;;;;;5086099;28;20274;-53
2022/08/08 00:57:04;;;;;;;7.43;6.93;;;17.40;99.90;;;;;;5084502;28;20310;-53
2022/08/08 01:00:03;;;;;;;7.60;7.10;;;17.50;99.90;;;;;;5093284;28;20197;-52
2022/08/08 01:03:08;;;;;;;7.83;7.23;;;17.50;99.90;;;;;;5085617;28;20202;-52
2022/08/08 01:06:03;;;;;;;7.87;7.47;;;17.60;99.90;;;;;;5084319;28;20193;-53
2022/08/08 01:09:17;;;;;;;8.83;8.20;;;17.60;99.90;;;;;;5079388;28;20197;-53
2022/08/08 01:12:17;;;;;;;6.70;6.40;;;17.50;99.90;;;;;;5056790;28;20229;-53
2022/08/08 01:15:19;;;;;;;6.70;6.27;;;17.50;99.90;;;;;;5087989;28;20270;-53
2022/08/08 01:18:34;;;;;;;7.10;6.87;;;17.40;99.90;;;;;;5090818;28;20203;-53
2022/08/08 01:21:19;;;;;;;6.10;5.87;;;17.40;99.90;;;;;;5056310;28;20728;-53
2022/08/08 01:24:29;;;;;;;8.07;7.67;;;17.40;99.90;;;;;;5081921;28;20307;-52
2022/08/08 01:27:15;;;;;;;7.23;6.93;;;17.40;99.90;;;;;;5074450;28;20646;-53
2022/08/08 01:30:10;;;;;;;6.87;6.53;;;17.40;99.90;;;;;;5083344;28;20221;-53
2022/08/08 01:33:12;;;;;;;6.67;6.30;;;17.40;99.90;;;;;;5082828;28;20204;-53
2022/08/08 01:36:07;;;;;;;7.03;6.63;;;17.40;99.90;;;;;;5096495;28;20196;-52
2022/08/08 01:39:17;;;;;;;6.70;6.30;;;17.40;99.90;;;;;;5092455;28;20298;-52
2022/08/08 01:41:55;;;;;;;6.97;6.57;;;17.30;99.90;;;;;;5055975;28;20244;-53
2022/08/08 01:45:01;;;;;;;7.00;6.40;;;17.10;99.90;;;;;;5044116;28;20218;-53
2022/08/08 01:47:46;;;;;;;7.03;6.70;;;16.90;99.90;;;;;;5057099;28;20573;-53
2022/08/08 01:50:25;;;;;;;6.67;6.27;;;16.80;99.90;;;;;;5065765;28;20759;-53
2022/08/08 01:53:02;;;;;;;7.33;6.93;;;16.80;99.90;;;;;;5080918;28;20735;-53
2022/08/08 01:55:38;;;;;;;7.27;6.77;;;16.80;99.90;;;;;;5084014;28;20204;-54
2022/08/08 01:58:21;;;;;;;6.67;6.27;;;16.90;99.90;;;;;;5072085;28;20200;-53
2022/08/08 02:00:55;;;;;;;6.17;5.87;;;16.80;99.90;;;;;;5084805;28;20188;-54
2022/08/08 02:03:33;;;;;;;6.27;6.07;;;16.80;99.90;;;;;;5085784;28;20216;-52
2022/08/08 02:06:18;;;;;;;6.90;6.47;;;16.80;99.90;;;;;;5083433;28;20228;-53
2022/08/08 02:08:59;;;;;;;7.17;6.83;;;16.70;99.90;;;;;;5091972;28;20258;-53
2022/08/08 02:11:33;;;;;;;8.33;7.80;;;16.70;99.90;;;;;;5097420;28;20293;-53
2022/08/08 02:14:04;;;;;;;7.40;7.00;;;16.70;99.90;;;;;;5085039;28;20341;-53
2022/08/08 02:16:40;;;;;;;7.27;6.87;;;16.60;99.90;;;;;;5083394;28;20201;-53
2022/08/08 02:19:16;;;;;;;6.93;6.63;;;16.60;99.90;;;;;;5090694;28;20283;-53
2022/08/08 02:24:48;;;;;;;7.13;6.73;;;16.60;99.90;;;;;;5084359;28;20235;-53
2022/08/08 02:27:29;;;;;;;7.30;7.00;;;16.60;99.90;;;;;;5085174;28;20206;-53
2022/08/08 02:30:05;;;;;;;7.57;7.13;;;16.60;99.90;;;;;;5090803;28;20764;-53
2022/08/08 02:32:52;;;;;;;7.87;7.47;;;16.60;99.90;;;;;;5095390;28;20665;-53
2022/08/08 02:36:00;;;;;;;7.80;7.40;;;16.60;99.90;;;;;;5080883;28;20197;-53
2022/08/08 02:38:54;;;;;;;8.70;8.10;;;16.60;99.90;;;;;;5009268;28;20203;-54
2022/08/08 02:41:56;;;;;;;7.03;6.73;;;16.60;99.90;;;;;;5088550;28;20334;-53
2022/08/08 02:45:05;;;;;;;6.73;6.43;;;16.50;99.90;;;;;;5081355;28;20211;-53
2022/08/08 02:48:08;;;;;;;6.90;6.60;;;16.50;99.90;;;;;;5071231;28;20236;-53
2022/08/08 02:51:31;;;;;;;6.93;6.60;;;16.50;99.90;;;;;;5077762;28;20224;-53
2022/08/08 02:54:33;;;;;;;7.10;6.80;;;16.50;99.90;;;;;;5081262;28;20267;-53
2022/08/08 02:57:52;;;;;;;7.43;7.10;;;16.50;99.90;;;;;;5063867;28;20196;-53
2022/08/08 03:01:07;;;;;;;7.70;7.20;;;16.50;99.90;;;;;;5018332;28;20683;-53
2022/08/08 03:04:14;;;;;;;6.67;6.30;;;16.50;99.90;;;;;;5021188;28;20661;-53
2022/08/08 03:07:27;;;;;;;6.37;6.17;;;16.40;99.90;;;;;;5071009;28;20200;-52
2022/08/08 03:10:28;;;;;;;7.37;6.97;;;16.40;99.90;;;;;;5078378;28;20315;-53
2022/08/08 03:13:28;;;;;;;7.40;7.00;;;16.30;99.90;;;;;;5071424;28;20213;-53
2022/08/08 03:16:23;;;;;;;7.37;6.97;;;16.30;99.90;;;;;;5070747;28;20254;-53
2022/08/08 03:19:00;;;;;;;7.13;6.83;;;16.40;99.90;;;;;;5070826;28;20262;-53
2022/08/08 03:21:27;;;;;;;7.43;7.07;;;16.30;99.90;;;;;;5080200;28;20224;-53
2022/08/08 03:23:55;;;;;;;9.00;8.10;;;16.50;99.90;;;;;;5087225;28;20349;-52
2022/08/08 03:26:29;;;;;;;6.77;6.47;;;16.50;99.90;;;;;;5070572;28;20666;-53
2022/08/08 03:29:02;;;;;;;6.93;6.43;;;16.50;99.90;;;;;;5071839;28;20223;-52
2022/08/08 03:34:15;;;;;;;6.83;6.53;;;16.50;99.90;;;;;;5071302;28;20243;-53
2022/08/08 03:36:42;;;;;;;6.50;6.20;;;16.30;99.90;;;;;;5082482;28;20292;-52
2022/08/08 03:39:13;;;;;;;6.37;6.07;;;16.30;99.90;;;;;;5089913;28;21877;-53
2022/08/08 03:41:40;;;;;;;6.93;6.50;;;16.30;99.90;;;;;;5082397;28;20193;-53
2022/08/08 03:44:07;;;;;;;7.03;6.63;;;16.20;99.90;;;;;;5089857;28;20602;-52
2022/08/08 03:46:44;;;;;;;6.60;6.30;;;16.10;99.90;;;;;;5094195;28;20235;-53
2022/08/08 03:49:18;;;;;;;6.23;5.93;;;16.10;99.90;;;;;;5073054;28;20315;-53
2022/08/08 03:51:46;;;;;;;6.87;6.57;;;16.00;99.90;;;;;;5083954;28;20300;-52
2022/08/08 03:54:15;;;;;;;7.70;7.17;;;16.00;99.90;;;;;;5082495;28;20301;-52
2022/08/08 03:56:42;;;;;;;6.67;6.30;;;15.90;99.90;;;;;;5087129;28;20253;-53
2022/08/08 03:59:09;;;;;;;6.37;6.00;;;16.00;99.90;;;;;;5092076;28;20649;-53
2022/08/08 04:01:38;;;;;;;7.47;6.97;;;15.90;99.90;;;;;;5091821;28;20276;-52
2022/08/08 04:04:05;;;;;;;6.47;6.17;;;15.90;99.90;;;;;;5089918;28;20208;-52
2022/08/08 04:06:32;;;;;;;6.63;6.33;;;15.90;99.90;;;;;;5089093;28;20224;-52
2022/08/08 04:09:00;;;;;;;5.50;5.37;;;15.90;99.90;;;;;;5092227;28;20662;-53
2022/08/08 04:11:28;;;;;;;5.50;5.30;;;16.00;99.90;;;;;;5092195;28;20209;-52
2022/08/08 04:13:55;;;;;;;6.40;6.10;;;15.90;99.90;;;;;;5091932;28;20628;-52
2022/08/08 04:16:22;;;;;;;6.60;6.20;;;16.00;99.90;;;;;;5092726;28;20731;-52
2022/08/08 04:18:50;;;;;;;5.60;5.40;;;16.00;99.90;;;;;;5092684;28;20220;-52
2022/08/08 04:21:18;;;;;;;6.63;6.07;;;16.00;99.90;;;;;;5084633;28;20196;-52
2022/08/08 04:23:45;;;;;;;6.87;6.43;;;16.00;99.90;;;;;;5091001;28;20224;-53
2022/08/08 04:26:12;;;;;;;5.93;5.70;;;16.10;99.90;;;;;;5092706;28;20197;-52
2022/08/08 04:28:40;;;;;;;6.37;5.97;;;16.20;99.90;;;;;;5088932;28;20273;-53
2022/08/08 04:31:07;;;;;;;6.60;6.30;;;16.30;99.90;;;;;;5089150;28;20216;-52
2022/08/08 04:33:35;;;;;;;6.27;5.97;;;16.40;99.90;;;;;;5089110;28;20303;-53
2022/08/08 04:36:02;;;;;;;6.53;6.23;;;16.50;99.90;;;;;;5092231;28;20203;-52
2022/08/08 04:38:29;;;;;;;6.80;6.40;;;16.60;99.90;;;;;;5089956;28;20235;-52
2022/08/08 04:40:56;;;;;;;6.07;5.87;;;16.80;99.90;;;;;;5090975;28;21309;-53
2022/08/08 04:43:23;;;;;;;6.27;5.97;;;16.90;99.90;;;;;;5090303;28;20273;-52
2022/08/08 04:45:52;;;;;;;6.23;5.93;;;17.00;99.90;;;;;;5091889;28;20203;-52
2022/08/08 04:48:19;;;;;;;5.43;5.23;;;17.10;99.90;;;;;;5085384;28;20201;-52
2022/08/08 04:50:46;;;;;;;6.10;5.80;;;17.20;99.90;;;;;;5087050;28;20213;-53
2022/08/08 04:53:15;;;;;;;5.83;5.63;;;17.20;99.90;;;;;;5088943;28;20274;-52
2022/08/08 04:55:42;;;;;;;5.80;5.47;;;17.30;99.90;;;;;;5083751;28;20235;-52
2022/08/08 04:58:13;;;;;;;5.40;5.20;;;17.40;99.90;;;;;;5085003;28;20200;-52
2022/08/08 05:00:40;;;;;;;6.80;6.23;;;17.60;99.90;;;;;;5090689;28;20684;-52
2022/08/08 05:03:08;;;;;;;7.03;6.53;;;18.00;99.90;;;;;;5088725;28;20238;-52
2022/08/08 05:05:35;;;;;;;5.27;5.07;;;18.30;99.90;;;;;;5091745;28;20193;-52
2022/08/08 05:08:02;;;;;;;5.23;4.90;;;18.70;99.90;;;;;;5090535;28;20734;-52
2022/08/08 05:10:30;;;;;;;5.80;5.60;;;18.90;99.90;;;;;;5087536;28;20243;-52
2022/08/08 05:12:57;;;;;;;5.17;4.97;;;19.00;99.90;;;;;;5090768;28;20295;-52
2022/08/08 05:15:24;;;;;;;5.63;5.33;;;18.90;99.90;;;;;;5092020;28;20201;-52
2022/08/08 05:17:54;;;;;;;5.73;5.53;;;18.70;99.90;;;;;;5088351;28;20794;-53
2022/08/08 05:20:23;;;;;;;6.63;6.13;;;18.50;99.90;;;;;;5093171;28;20664;-52
2022/08/08 05:22:50;;;;;;;5.40;5.20;;;18.30;99.90;;;;;;5090407;28;20293;-53
2022/08/08 05:25:17;;;;;;;7.00;6.60;;;18.20;99.90;;;;;;5091978;28;20202;-52
2022/08/08 05:27:44;;;;;;;6.07;5.67;;;18.10;99.90;;;;;;5090755;28;20224;-52
2022/08/08 05:30:12;;;;;;;5.60;5.40;;;18.00;99.90;;;;;;5091269;28;20253;-53
2022/08/08 05:32:39;;;;;;;5.10;4.83;;;18.10;99.90;;;;;;5091231;28;20232;-52
2022/08/08 05:35:08;;;;;;;5.30;5.10;;;18.20;99.90;;;;;;5091027;28;20200;-52
2022/08/08 05:37:40;;;;;;;5.93;5.53;;;18.30;99.90;;;;;;5091159;28;20262;-52
2022/08/08 05:40:08;;;;;;;6.10;5.70;;;18.40;99.90;;;;;;5090480;28;20201;-52
2022/08/08 05:42:41;;;;;;;5.93;5.43;;;18.60;99.90;;;;;;5091023;28;20224;-52
2022/08/08 05:45:09;;;;;;;6.03;5.60;;;18.70;99.90;;;;;;5090366;28;20254;-52
2022/08/08 05:47:38;;;;;;;5.80;5.40;;;18.80;99.90;;;;;;5092075;28;20723;-52
2022/08/08 05:50:06;;;;;;;5.53;5.10;;;18.80;99.90;;;;;;5093615;28;20683;-52
2022/08/08 05:52:34;;;;;;;6.97;6.40;;;18.90;99.90;;;;;;5089893;28;20711;-52
2022/08/08 05:55:03;;;;;;;6.80;6.43;;;18.90;99.90;;;;;;5090379;28;20202;-53
2022/08/08 05:57:34;;;;;;;6.90;6.60;;;19.10;99.90;;;;;;5090906;28;20197;-52
2022/08/08 06:00:04;;;;;;;5.90;5.60;;;19.10;99.90;;;;;;5090244;28;20197;-52
2022/08/08 06:05:20;;;;;;;6.00;5.80;;;19.50;99.90;;;;;;5089231;28;20672;-53
2022/08/08 06:07:48;;;;;;;6.43;5.90;;;20.10;99.90;;;;;;5088994;28;20208;-52
2022/08/08 06:10:19;;;;;;;6.40;6.00;;;20.50;99.90;;;;;;5084959;28;20224;-52
2022/08/08 06:12:48;;;;;;;5.77;5.43;;;20.60;99.90;;;;;;5086182;28;20227;-53
2022/08/08 06:15:15;;;;;;;5.63;5.33;;;20.70;99.90;;;;;;5092381;28;20196;-52
2022/08/08 06:17:42;;;;;;;5.60;5.40;;;20.90;99.90;;;;;;5090559;28;20348;-52
2022/08/08 06:20:11;;;;;;;4.80;4.60;;;21.00;99.90;;;;;;5090545;28;20223;-52
2022/08/08 06:22:39;;;;;;;5.70;5.27;;;21.10;99.90;;;;;;5090213;28;20185;-53
2022/08/08 06:25:07;;;;;;;6.30;6.03;;;21.10;99.90;;;;;;5088030;28;20219;-52
2022/08/08 06:27:45;;;;;;;5.43;5.20;;;21.20;99.90;;;;;;5091368;28;20196;-53
2022/08/08 06:30:13;;;;;;;6.33;6.03;;;21.40;99.90;;;;;;5088365;28;20214;-52
2022/08/08 06:32:43;;;;;;;6.33;5.80;;;21.50;99.90;;;;;;5088242;28;20300;-52
2022/08/08 06:35:13;;;;;;;6.33;6.03;;;21.70;99.90;;;;;;5089668;28;20197;-52
2022/08/08 06:37:45;;;;;;;5.63;5.43;;;22.30;99.90;;;;;;5088705;28;20657;-53
2022/08/08 06:40:14;;;;;;;4.87;4.67;;;23.60;99.90;;;;;;5086833;28;20234;-53
2022/08/08 06:42:53;;;;;;;5.07;4.80;;;24.60;99.90;;;;;;5090157;28;20284;-53
2022/08/08 06:45:21;;;;;;;5.37;5.03;;;25.80;99.90;;;;;;5090152;28;20616;-53
2022/08/08 06:47:49;;;;;;;6.07;5.57;;;26.30;99.90;;;;;;5089972;28;20250;-53
2022/08/08 06:50:16;;;;;;;5.63;5.43;;;26.10;99.90;;;;;;5089213;28;20192;-53
2022/08/08 06:52:44;;;;;;;5.57;5.20;;;26.20;99.90;;;;;;5088998;28;20232;-53
2022/08/08 06:55:11;;;;;;;5.17;4.70;;;26.30;99.90;;;;;;5089088;28;20193;-53
2022/08/08 06:57:38;;;;;;;5.45;5.05;;;26.70;99.90;;;;;;5088980;28;20197;-54
2022/08/08 07:00:08;;;;;;;4.32;4.22;;;27.30;99.90;;;;;;5089601;28;20192;-53
2022/08/08 07:02:39;;;;;;;5.38;5.10;;;27.40;99.90;;;;;;5089170;28;20262;-53
2022/08/08 07:05:08;;;;;;;4.87;4.67;;;26.20;99.90;;;;;;5091174;28;20272;-53
2022/08/08 07:07:50;;;;;;;5.20;5.00;;;25.50;99.90;;;;;;5083594;28;20675;-53
2022/08/08 07:10:19;;;;;;;4.57;4.35;;;24.80;99.90;;;;;;5093301;28;20274;-53
2022/08/08 07:12:53;;;;;;;4.63;4.43;;;24.70;99.90;;;;;;5089563;28;20212;-53
2022/08/08 07:15:33;;;;;;;4.47;4.37;;;25.10;99.90;;;;;;5086413;28;20223;-53
2022/08/08 07:18:05;;;;;;;5.60;5.30;;;25.50;99.90;;;;;;5090016;28;20573;-53
2022/08/08 07:20:36;;;;;;;5.37;5.13;;;26.40;99.90;;;;;;5084313;28;20208;-53
2022/08/08 07:23:09;;;;;;;5.93;5.53;;;26.40;99.90;;;;;;5088987;28;20231;-54
2022/08/08 07:25:40;;;;;;;5.13;4.93;;;27.10;99.90;;;;;;5074398;28;20282;-54
2022/08/08 07:28:10;;;;;;;5.63;5.35;;;27.90;99.90;;;;;;5086032;28;20240;-54
2022/08/08 07:30:39;;;;;;;15.50;8.27;;;28.50;99.90;;;;;;5087853;28;20197;-54
2022/08/08 07:33:07;;;;;;;6.55;5.93;;;28.30;99.90;;;;;;5081808;28;20303;-54
2022/08/08 07:35:37;;;;;;;4.40;4.10;;;28.80;99.90;;;;;;5079026;28;20262;-53
2022/08/08 07:38:05;;;;;;;5.38;4.88;;;28.80;99.90;;;;;;5084381;28;20296;-54
2022/08/08 07:40:32;;;;;;;5.65;5.25;;;29.10;99.90;;;;;;5082139;28;20562;-54
2022/08/08 07:43:02;;;;;;;5.22;5.03;;;29.80;99.90;;;;;;5094486;28;20244;-54
2022/08/08 07:45:29;;;;;;;5.50;5.22;;;29.70;99.90;;;;;;5091453;28;20432;-54
2022/08/08 07:48:01;;;;;;;3.80;3.80;;;30.10;99.90;;;;;;5093359;28;20204;-54
2022/08/08 07:50:28;;;;;;;5.65;5.35;;;30.50;99.90;;;;;;5078685;28;20255;-53
2022/08/08 07:52:59;;;;;;;4.20;4.10;;;30.50;99.90;;;;;;5089527;28;20232;-54
2022/08/08 07:55:27;;;;;;;4.82;4.63;;;30.60;99.90;;;;;;5089344;28;20258;-54
2022/08/08 07:58:07;;;;;;;4.50;4.30;;;30.80;99.90;;;;;;5093222;28;20230;-54
2022/08/08 08:00:40;;;;;;;4.25;4.05;;;31.00;99.90;;;;;;5077616;28;20283;-54
2022/08/08 08:03:11;;;;;;;3.65;3.65;;;30.70;99.90;;;;;;5073867;28;20247;-54
2022/08/08 08:05:42;;;;;;;4.97;4.78;;;31.20;99.90;;;;;;5092134;28;20207;-54
2022/08/08 08:08:16;;;;;;;4.45;4.35;;;30.80;99.90;;;;;;5095450;28;20196;-53
2022/08/08 08:10:45;;;;;;;4.55;4.28;;;30.40;99.90;;;;;;5080159;28;20231;-54
2022/08/08 08:13:24;;;;;;;4.20;4.00;;;30.60;99.90;;;;;;5092224;28;20220;-53
2022/08/08 08:16:01;;;;;;;4.95;4.57;;;30.80;99.90;;;;;;5092904;28;20195;-54
2022/08/08 08:18:36;;;;;;;4.40;4.30;;;30.70;99.90;;;;;;5093140;28;20223;-54
2022/08/08 08:21:03;;;;;;;5.78;5.47;;;30.90;99.90;;;;;;5092731;28;20277;-53
2022/08/08 08:23:30;;;;;;;4.00;3.80;;;30.00;99.90;;;;;;5088196;28;20670;-53
2022/08/08 08:25:57;;;;;;;3.95;3.85;;;30.00;99.90;;;;;;5091958;28;20211;-54
2022/08/08 08:28:24;;;;;;;4.43;4.32;;;30.70;99.90;;;;;;5090599;28;20253;-54
2022/08/08 08:30:52;;;;;;;4.85;4.75;;;30.80;99.90;;;;;;5093277;28;20223;-54
2022/08/08 08:33:19;;;;;;;4.65;4.28;;;31.40;99.90;;;;;;5092366;28;20896;-54
2022/08/08 08:35:48;;;;;;;4.88;4.70;;;31.60;99.90;;;;;;5084360;28;20507;-54
2022/08/08 08:38:15;;;;;;;6.15;5.95;;;31.00;99.90;;;;;;5100503;28;20695;-54
2022/08/08 08:40:42;;;;;;;4.95;4.75;;;30.90;99.90;;;;;;5084462;28;20310;-54
2022/08/08 08:43:10;;;;;;;6.40;6.10;;;30.00;99.90;;;;;;5072161;28;20698;-54
2022/08/08 08:45:37;;;;;;;6.15;5.95;;;29.20;99.90;;;;;;5082922;28;20627;-54
2022/08/08 08:48:06;;;;;;;5.75;5.45;;;29.30;99.90;;;;;;5089808;28;20242;-54
2022/08/08 08:50:35;;;;;;;5.43;5.13;;;29.10;99.90;;;;;;5085160;28;20193;-54
2022/08/08 08:53:07;;;;;;;4.97;4.82;;;29.40;99.90;;;;;;5072604;28;20233;-54
2022/08/08 08:55:38;;;;;;;5.78;5.47;;;29.30;99.90;;;;;;5072886;28;20686;-54
2022/08/08 08:58:07;;;;;;;6.78;6.45;;;29.60;99.90;;;;;;5092532;28;20197;-53
2022/08/08 09:00:37;;;;;;;6.05;5.75;;;28.70;99.90;;;;;;5092754;28;20197;-54
2022/08/08 09:03:08;;;;;;;5.63;5.28;;;28.80;99.90;;;;;;5090493;28;20304;-53
2022/08/08 09:05:39;;;;;;;5.28;4.97;;;28.80;99.90;;;;;;5092235;28;20197;-54
2022/08/08 09:08:08;;;;;;;6.35;6.03;;;29.40;99.90;;;;;;5089860;28;20619;-54
2022/08/08 09:10:38;;;;;;;5.38;5.18;;;29.50;99.90;;;;;;5092488;28;20300;-54
2022/08/08 09:13:06;;;;;;;5.03;4.93;;;30.00;99.90;;;;;;5091842;28;20278;-54
2022/08/08 09:15:33;;;;;;;5.60;5.38;;;30.00;99.90;;;;;;5092353;28;20193;-54
2022/08/08 09:18:00;;;;;;;6.28;5.97;;;30.00;99.90;;;;;;5092151;28;20238;-54
2022/08/08 09:20:28;;;;;;;5.75;5.53;;;30.30;99.90;;;;;;5087988;28;20243;-53
2022/08/08 09:22:57;;;;;;;6.35;5.78;;;29.60;99.90;;;;;;5092064;28;20327;-54
2022/08/08 09:25:26;;;;;;;6.35;5.75;;;29.70;99.90;;;;;;5091677;28;20646;-54
2022/08/08 09:27:57;;;;;;;5.45;5.25;;;29.60;99.90;;;;;;5092088;28;20265;-54
2022/08/08 09:30:26;;;;;;;3.92;3.63;;;29.60;99.90;;;;;;5092000;28;20219;-53
2022/08/08 09:32:56;;;;;;;4.70;4.50;;;30.10;99.90;;;;;;5091880;28;20230;-54
2022/08/08 09:35:27;;;;;;;4.32;4.22;;;30.20;99.90;;;;;;5091682;28;20200;-54
2022/08/08 09:37:56;;;;;;;4.93;4.70;;;30.10;99.90;;;;;;5088082;28;20201;-54
2022/08/08 09:40:26;;;;;;;4.57;4.28;;;30.00;99.90;;;;;;5091556;28;20629;-54
2022/08/08 09:43:06;;;;;;;4.63;4.10;;;29.80;99.90;;;;;;5091907;28;20266;-54
2022/08/08 09:45:43;;;;;;;4.25;4.05;;;29.70;99.90;;;;;;5093439;28;20253;-54
2022/08/08 09:48:10;;;;;;;5.05;4.72;;;29.60;99.90;;;;;;5072020;28;20208;-54
2022/08/08 09:50:40;;;;;;;4.28;4.03;;;29.70;99.90;;;;;;5090221;28;20192;-54
2022/08/08 09:53:10;;;;;;;4.60;4.20;;;30.20;99.90;;;;;;5071721;28;20602;-54
2022/08/08 09:55:39;;;;;;;3.78;3.60;;;29.80;99.90;;;;;;5080247;28;20929;-54
2022/08/08 09:58:08;;;;;;;3.67;3.38;;;30.10;99.90;;;;;;5083618;28;20200;-54
2022/08/08 10:00:38;;;;;;;4.40;4.10;;;30.20;99.90;;;;;;5091842;28;20614;-53
2022/08/08 10:03:06;;;;;;;3.47;3.33;;;30.90;99.90;;;;;;5071381;28;20227;-54
2022/08/08 10:05:35;;;;;;;2.78;2.78;;;31.40;99.90;;;;;;5071763;28;20205;-54
2022/08/08 10:08:02;;;;;;;4.55;3.33;;;31.10;99.90;;;;;;5071748;28;20238;-54
2022/08/08 10:10:31;;;;;;;2.85;2.75;;;31.60;99.90;;;;;;5087620;28;20200;-54
2022/08/08 10:13:00;;;;;;;3.35;3.20;;;31.60;99.90;;;;;;5081824;28;20228;-55
2022/08/08 10:15:36;;;;;;;3.13;3.03;;;30.70;99.90;;;;;;5083143;28;20224;-54
2022/08/08 10:18:03;;;;;;;2.53;2.53;;;30.20;99.90;;;;;;5091788;28;20723;-54
2022/08/08 10:20:40;;;;;;;2.67;2.67;;;30.80;99.90;;;;;;5085403;28;20662;-54
2022/08/08 10:23:08;;;;;;;3.13;2.88;;;31.50;99.90;;;;;;5082552;28;20220;-54
2022/08/08 10:25:38;;;;;;;2.95;2.75;;;31.30;99.90;;;;;;5082559;28;20193;-54
2022/08/08 10:28:15;;;;;;;2.67;2.53;;;31.40;99.90;;;;;;5087365;28;20608;-54
2022/08/08 10:30:55;;;;;;;2.58;2.47;;;31.30;99.90;;;;;;5082249;28;20312;-54
2022/08/08 10:33:30;;;;;;;2.22;2.22;;;31.10;99.90;;;;;;5090392;28;20232;-54
2022/08/08 10:36:02;;;;;;;2.20;2.05;;;31.40;99.90;;;;;;5090045;28;20192;-54
2022/08/08 10:38:31;;;;;;;2.17;2.08;;;31.50;99.90;;;;;;5089949;28;20258;-54
2022/08/08 10:41:03;;;;;;;2.05;1.95;;;31.50;99.90;;;;;;5089540;28;20249;-54
2022/08/08 10:43:40;;;;;;;1.90;1.80;;;31.00;99.90;;;;;;5088985;28;20629;-54
2022/08/08 10:46:24;;;;;;;2.25;2.15;;;31.10;99.90;;;;;;5086822;28;20253;-54
2022/08/08 10:48:52;;;;;;;2.30;2.10;;;31.10;99.10;;;;;;5088504;28;20284;-54
2022/08/08 10:51:20;;;;;;;1.70;1.70;;;31.50;99.90;;;;;;5090694;28;20196;-55
2022/08/08 10:53:49;;;;;;;1.77;1.50;;;31.80;99.90;;;;;;5089525;28;20277;-55
2022/08/08 10:56:16;;;;;;;2.95;2.85;;;32.20;99.90;;;;;;5089870;28;20557;-54
2022/08/08 10:58:45;;;;;;;1.92;1.83;;;31.40;99.90;;;;;;5088681;28;20201;-54
2022/08/08 11:01:13;;;;;;;2.00;1.90;;;30.60;99.90;;;;;;5089734;28;20261;-55
2022/08/08 11:03:42;;;;;;;1.90;1.85;;;29.70;99.90;;;;;;5089469;28;20239;-55
2022/08/08 11:06:09;;;;;;;2.03;1.92;;;29.60;99.90;;;;;;5090937;28;20296;-54
2022/08/08 11:08:37;;;;;;;2.25;2.25;;;29.50;99.90;;;;;;5093719;28;20202;-54
2022/08/08 11:11:05;;;;;;;2.22;2.22;;;28.70;99.90;;;;;;5093746;28;20200;-54
2022/08/08 11:13:39;;;;;;;1.48;1.38;;;28.40;99.90;;;;;;5093579;28;20220;-54
2022/08/08 11:16:11;;;;;;;1.83;1.73;;;28.20;99.90;;;;;;5092872;28;20197;-54
2022/08/08 11:18:39;;;;;;;2.38;2.28;;;27.90;99.90;;;;;;5092804;28;20572;-54
2022/08/08 11:21:07;;;;;;;1.60;1.55;;;27.70;99.90;;;;;;5093602;28;20677;-54
2022/08/08 11:23:36;;;;;;;2.33;2.22;;;27.60;99.90;;;;;;5092961;28;20277;-54
2022/08/08 11:26:05;;;;;;;2.42;1.98;;;27.60;99.90;;;;;;5090104;28;20242;-54
2022/08/08 11:28:35;;;;;;;1.75;1.75;;;27.70;99.90;;;;;;5093646;28;20206;-54
2022/08/08 11:31:04;;;;;;;2.28;1.88;;;27.60;99.90;;;;;;5093294;28;20289;-54
2022/08/08 11:33:34;;;;;;;3.25;2.20;;;27.60;99.90;;;;;;5092056;28;20224;-54
2022/08/08 11:36:01;;;;;;;1.83;1.73;;;27.60;99.90;;;;;;5093290;28;20197;-54
2022/08/08 11:38:28;;;;;;;2.78;1.90;;;27.40;99.90;;;;;;5093545;28;20192;-54
2022/08/08 11:40:55;;;;;;;1.65;1.65;;;27.30;99.90;;;;;;5092994;28;20255;-55
2022/08/08 11:43:24;;;;;;;1.48;1.45;;;27.20;99.90;;;;;;5093586;28;20262;-55
2022/08/08 11:45:53;;;;;;;1.73;1.70;;;27.30;99.90;;;;;;5093044;28;20193;-54
2022/08/08 11:48:21;;;;;;;1.75;1.75;;;27.30;99.90;;;;;;5093915;28;20210;-55
2022/08/08 11:50:51;;;;;;;1.55;1.55;;;27.60;99.90;;;;;;5089422;28;20193;-54
2022/08/08 11:53:20;;;;;;;1.60;1.50;;;27.40;99.90;;;;;;5087235;28;20231;-54
2022/08/08 11:55:48;;;;;;;1.70;1.70;;;27.10;99.90;;;;;;5091219;28;20670;-54
2022/08/08 11:58:16;;;;;;;2.05;1.98;;;27.10;99.90;;;;;;5092867;28;20295;-54
2022/08/08 12:00:45;;;;;;;1.70;1.60;;;27.20;99.90;;;;;;5092456;28;20196;-54
2022/08/08 12:03:20;;;;;;;1.88;1.83;;;27.10;99.90;;;;;;5092612;28;20766;-54
2022/08/08 12:05:48;;;;;;;2.17;2.08;;;27.10;99.90;;;;;;5088079;28;20487;-54
2022/08/08 12:08:17;;;;;;;2.13;1.92;;;27.10;99.90;;;;;;5088454;28;20294;-54
2022/08/08 12:10:49;;;;;;;1.67;1.67;;;27.10;99.90;;;;;;5089689;28;20452;-54
2022/08/08 12:13:22;;;;;;;2.83;2.15;;;27.30;99.90;;;;;;5091927;28;20247;-54
2022/08/08 12:15:50;;;;;;;1.50;1.40;;;27.20;99.90;;;;;;5094693;28;20540;-55
2022/08/08 12:18:18;;;;;;;1.58;1.45;;;27.10;99.90;;;;;;5093232;28;20192;-54
2022/08/08 12:20:45;;;;;;;1.70;1.60;;;27.10;99.90;;;;;;5093035;28;20708;-54
2022/08/08 12:23:13;;;;;;;1.75;1.70;;;27.10;99.90;;;;;;5092817;28;20281;-54
2022/08/08 12:25:42;;;;;;;1.60;1.60;;;27.10;99.90;;;;;;5093793;28;20200;-54
2022/08/08 12:28:12;;;;;;;3.83;1.92;;;27.10;99.90;;;;;;5092973;28;20198;-53
2022/08/08 12:30:39;;;;;;;1.50;1.50;;;26.90;99.90;;;;;;5092247;28;20561;-54
2022/08/08 12:33:17;;;;;;;2.03;1.75;;;26.90;99.90;;;;;;5091679;28;20232;-54
2022/08/08 12:35:45;;;;;;;2.33;2.15;;;26.80;99.90;;;;;;5092291;28;20200;-54
2022/08/08 12:38:12;;;;;;;2.20;2.00;;;26.90;99.90;;;;;;5092525;28;20200;-54
2022/08/08 12:40:43;;;;;;;1.80;1.80;;;26.90;99.90;;;;;;5091091;28;20279;-55
2022/08/08 12:43:11;;;;;;;1.73;1.73;;;26.90;99.90;;;;;;5090136;28;20212;-55
2022/08/08 12:45:40;;;;;;;1.83;1.42;;;27.00;99.90;;;;;;5091350;28;20436;-54
2022/08/08 12:48:08;;;;;;;2.08;1.98;;;27.00;99.90;;;;;;5092144;28;20250;-54
2022/08/08 12:50:42;;;;;;;1.60;1.50;;;27.00;99.90;;;;;;5091935;28;20211;-54
2022/08/08 12:53:24;;;;;;;2.30;2.10;;;26.80;99.90;;;;;;5091996;28;20220;-54
2022/08/08 12:55:57;;;;;;;4.15;1.77;;;26.80;99.90;;;;;;5092488;28;20196;-54
2022/08/08 12:58:25;;;;;;;1.55;1.55;;;26.60;99.90;;;;;;5091111;28;20689;-54
2022/08/08 13:00:53;;;;;;;6.20;1.67;;;26.70;99.90;;;;;;5091615;28;20200;-54
2022/08/08 13:03:24;;;;;;;1.45;1.45;;;26.60;99.90;;;;;;5091311;28;20215;-55
2022/08/08 13:06:02;;;;;;;3.33;2.53;;;26.60;99.90;;;;;;5091598;28;20231;-54
2022/08/08 13:08:42;;;;;;;1.50;1.50;;;26.70;99.90;;;;;;5091822;28;20199;-54
2022/08/08 13:11:26;;;;;;;1.83;1.83;;;26.80;99.90;;;;;;5090825;28;20235;-54
2022/08/08 13:14:02;;;;;;;1.45;1.45;;;26.80;99.90;;;;;;5088755;28;20227;-54
2022/08/08 13:16:32;;;;;;;1.58;1.42;;;26.80;99.90;;;;;;5091702;28;20925;-55
2022/08/08 13:18:59;;;;;;;2.05;1.95;;;26.80;99.90;;;;;;5092588;28;20625;-54
2022/08/08 13:21:26;;;;;;;1.52;1.52;;;26.80;99.90;;;;;;5092555;28;20205;-54
2022/08/08 13:23:53;;;;;;;3.00;1.58;;;26.80;99.90;;;;;;5091828;28;20228;-54
2022/08/08 13:26:20;;;;;;;2.08;1.98;;;26.80;99.90;;;;;;5083808;28;20578;-54
2022/08/08 13:28:48;;;;;;;1.30;1.30;;;26.90;99.90;;;;;;5079955;28;20200;-53
2022/08/08 13:31:16;;;;;;;1.60;1.50;;;26.90;99.90;;;;;;5095267;28;20220;-53